createdAt,value
2022-12-05T05:39:30.074Z,100002.22
2022-12-05T05:40:05.069Z,100004.38
2022-12-05T05:40:40.828Z,99996.47
2022-12-05T05:41:12.207Z,100002.22
2022-12-05T05:41:43.599Z,100001.94
2022-12-05T05:42:14.941Z,100004.16
2022-12-05T05:42:46.283Z,100000.59
2022-12-05T05:43:17.665Z,100007.69
2022-12-05T05:43:49.053Z,100010.94
2022-12-05T05:44:20.432Z,100004.66
2022-12-05T05:44:51.883Z,100003.84
2022-12-05T05:45:23.319Z,100003.84
2022-12-05T05:45:54.700Z,100008.22
2022-12-05T05:46:26.137Z,100006.00
2022-12-05T05:46:57.631Z,100004.66
2022-12-05T05:47:29.021Z,100004.66
2022-12-05T05:48:00.398Z,100009.03
2022-12-05T05:48:31.797Z,100004.09
2022-12-05T05:49:03.164Z,100008.22
2022-12-05T05:49:34.517Z,100008.22
2022-12-05T05:50:06.000Z,100005.19
2022-12-05T05:50:37.368Z,100013.38
2022-12-05T05:51:08.766Z,100007.63
2022-12-05T05:51:40.115Z,100012.56
2022-12-05T05:52:11.584Z,100014.19
2022-12-05T05:52:42.987Z,100013.09
2022-12-05T05:53:14.448Z,100011.97
2022-12-05T05:53:45.917Z,100011.47
2022-12-05T05:54:17.281Z,100012.28
2022-12-05T05:54:48.653Z,100016.34
2022-12-05T05:55:20.187Z,100013.09
2022-12-05T05:55:51.551Z,100014.72
2022-12-05T05:56:22.920Z,100016.63
2022-12-05T05:56:54.312Z,100014.19
2022-12-05T05:57:25.745Z,100009.84
2022-12-05T05:57:57.124Z,100013.69
2022-12-05T05:58:28.480Z,100017.22
2022-12-05T05:58:59.891Z,100010.94
2022-12-05T05:59:31.307Z,100022.69
2022-12-05T06:00:02.668Z,100012.84
2022-12-05T06:00:34.110Z,100018.03
2022-12-05T06:01:05.471Z,100012.56
2022-12-05T06:01:36.868Z,100018.84
2022-12-05T06:02:08.234Z,100016.94
2022-12-05T06:02:39.747Z,100014.78
2022-12-05T06:03:11.366Z,100012.56
2022-12-05T06:03:42.901Z,100018.31
2022-12-05T06:04:14.389Z,100019.66
2022-12-05T06:04:45.791Z,100016.41
2022-12-05T06:05:17.228Z,100021.56
2022-12-05T06:05:52.984Z,100018.53
2022-12-05T06:06:24.549Z,100019.06
2022-12-05T06:06:55.903Z,100021.28
2022-12-05T06:07:27.435Z,100016.63
2022-12-05T06:07:58.840Z,100019.34
2022-12-05T06:08:30.331Z,100020.47
2022-12-05T06:09:01.727Z,100025.13
2022-12-05T06:09:33.096Z,100026.22
2022-12-05T06:10:04.466Z,100023.19
2022-12-05T06:10:35.832Z,100025.13
2022-12-05T06:11:07.213Z,100026.22
2022-12-05T06:11:38.633Z,100018.03
2022-12-05T06:12:09.971Z,100027.56
2022-12-05T06:12:41.364Z,100024.00
2022-12-05T06:13:12.780Z,100028.94
2022-12-05T06:13:44.110Z,100029.75
2022-12-05T06:14:15.461Z,100023.19
2022-12-05T06:14:46.818Z,100027.31
2022-12-05T06:15:18.215Z,100028.94
2022-12-05T06:15:49.596Z,100022.91
2022-12-05T06:16:21.167Z,100030.56
2022-12-05T06:16:52.761Z,100028.13
2022-12-05T06:17:24.205Z,100018.84
2022-12-05T06:17:55.653Z,100026.50
2022-12-05T06:18:27.033Z,100022.97
2022-12-05T06:18:58.387Z,100025.13
2022-12-05T06:19:29.745Z,100025.94
2022-12-05T06:20:01.268Z,100022.69
2022-12-05T06:20:32.810Z,100023.50
2022-12-05T06:21:04.227Z,100024.81
2022-12-05T06:21:35.701Z,100024.00
2022-12-05T06:22:07.111Z,100029.75
2022-12-05T06:22:38.483Z,100023.50
2022-12-05T06:23:09.844Z,100027.25
2022-12-05T06:23:41.285Z,100029.75
2022-12-05T06:24:12.690Z,100032.78
2022-12-05T06:24:44.077Z,100029.25
2022-12-05T06:25:15.485Z,100026.22
2022-12-05T06:25:46.867Z,100033.81
2022-12-05T06:26:18.253Z,100040.69
2022-12-05T06:26:49.634Z,100029.25
2022-12-05T06:27:21.008Z,100036.91
2022-12-05T06:27:52.410Z,100032.50
2022-12-05T06:28:23.837Z,100032.50
2022-12-05T06:28:55.209Z,100031.97
2022-12-05T06:29:30.043Z,100036.63
2022-12-05T06:30:03.843Z,100036.31
2022-12-05T06:30:35.216Z,100035.22
2022-12-05T06:31:06.649Z,100036.84
2022-12-05T06:31:38.102Z,100035.22
2022-12-05T06:32:09.634Z,100031.69
2022-12-05T06:32:41.084Z,100046.72
2022-12-05T06:33:12.411Z,100036.31
2022-12-05T06:33:43.812Z,100045.34
2022-12-05T06:34:15.202Z,100041.19
2022-12-05T06:34:46.527Z,100045.03
2022-12-05T06:35:17.918Z,100041.25
2022-12-05T06:35:49.287Z,100037.72
2022-12-05T06:36:20.662Z,100039.63
2022-12-05T06:36:52.101Z,100044.00
2022-12-05T06:37:23.515Z,100045.63
2022-12-05T06:37:54.864Z,100045.34
2022-12-05T06:38:26.243Z,100045.63
2022-12-05T06:38:57.574Z,100043.41
2022-12-05T06:39:28.999Z,100043.41
2022-12-05T06:40:00.785Z,100042.88
2022-12-05T06:40:32.367Z,100038.53
2022-12-05T06:41:03.742Z,100043.19
2022-12-05T06:41:35.123Z,100041.78
2022-12-05T06:42:06.527Z,100040.16
2022-12-05T06:42:37.958Z,100045.09
2022-12-05T06:43:09.311Z,100042.88
2022-12-05T06:43:40.654Z,100049.97
2022-12-05T06:44:12.069Z,100048.34
2022-12-05T06:44:43.499Z,100045.63
2022-12-05T06:45:14.901Z,100043.69
2022-12-05T06:45:46.338Z,100045.91
2022-12-05T06:46:17.777Z,100045.91
2022-12-05T06:46:49.197Z,100045.34
2022-12-05T06:47:20.677Z,100047.25
2022-12-05T06:47:52.229Z,100037.13
2022-12-05T06:48:23.723Z,100045.34
2022-12-05T06:48:55.144Z,100047.25
2022-12-05T06:49:31.699Z,100048.56
2022-12-05T06:50:04.073Z,100035.22
2022-12-05T06:50:35.466Z,100037.94
2022-12-05T06:51:06.870Z,100034.63
2022-12-05T06:51:38.198Z,100044.22
2022-12-05T06:52:09.597Z,100047.25
2022-12-05T06:52:40.983Z,100048.56
2022-12-05T06:53:12.430Z,100047.75
2022-12-05T06:53:43.877Z,100049.69
2022-12-05T06:54:15.471Z,100051.09
2022-12-05T06:54:46.936Z,100049.16
2022-12-05T06:55:18.435Z,100048.88
2022-12-05T06:55:49.811Z,100045.03
2022-12-05T06:56:21.205Z,100051.59
2022-12-05T06:56:52.614Z,100055.44
2022-12-05T06:57:23.984Z,100053.81
2022-12-05T06:57:55.372Z,100052.72
2022-12-05T06:58:26.803Z,100049.16
2022-12-05T06:58:58.163Z,100056.47
2022-12-05T06:59:29.514Z,100056.53
2022-12-05T07:00:00.880Z,100054.84
2022-12-05T07:00:32.282Z,100061.41
2022-12-05T07:01:03.755Z,100054.03
2022-12-05T07:01:35.290Z,100053.22
2022-12-05T07:02:06.849Z,100048.56
2022-12-05T07:02:38.292Z,100058.69
2022-12-05T07:03:09.743Z,100061.41
2022-12-05T07:03:41.111Z,100059.78
2022-12-05T07:04:12.562Z,100057.88
2022-12-05T07:04:43.893Z,100061.94
2022-12-05T07:05:15.252Z,100054.03
2022-12-05T07:05:46.656Z,100063.56
2022-12-05T07:06:18.016Z,100057.88
2022-12-05T07:06:51.102Z,100058.97
2022-12-05T07:07:22.748Z,100058.16
2022-12-05T07:07:54.210Z,100057.34
2022-12-05T07:08:25.632Z,100054.63
2022-12-05T07:08:57.027Z,100059.56
2022-12-05T07:09:28.459Z,100053.00
2022-12-05T07:10:00.097Z,100058.16
2022-12-05T07:10:31.698Z,100059.78
2022-12-05T07:11:03.116Z,100058.97
2022-12-05T07:11:34.525Z,100057.88
2022-12-05T07:12:05.910Z,100058.47
2022-12-05T07:12:37.302Z,100066.34
2022-12-05T07:13:10.904Z,100060.91
2022-12-05T07:13:44.414Z,100063.34
2022-12-05T07:14:38.703Z,100055.72
2022-12-05T07:15:07.288Z,100069.59
2022-12-05T07:15:38.661Z,100059.28
2022-12-05T07:16:10.227Z,100063.91
2022-12-05T07:16:41.739Z,100063.09
2022-12-05T07:17:13.254Z,100059.28
2022-12-05T07:17:44.609Z,100065.25
2022-12-05T07:18:15.980Z,100062.53
2022-12-05T07:18:47.364Z,100062.00
2022-12-05T07:19:18.762Z,100063.91
2022-12-05T07:19:50.120Z,100060.59
2022-12-05T07:20:21.570Z,100066.34
2022-12-05T07:21:11.272Z,100061.13
2022-12-05T07:21:43.356Z,100064.44
2022-12-05T07:22:16.098Z,100067.16
2022-12-05T07:22:47.679Z,100067.47
2022-12-05T07:23:19.066Z,100070.19
2022-12-05T07:23:50.431Z,100067.97
2022-12-05T07:24:21.884Z,100075.06
2022-12-05T07:24:53.286Z,100065.25
2022-12-05T07:25:24.821Z,100074.25
2022-12-05T07:25:56.166Z,100071.75
2022-12-05T07:26:27.541Z,100067.69
2022-12-05T07:26:58.986Z,100075.06
2022-12-05T07:27:30.365Z,100071.00
2022-12-05T07:28:01.715Z,100066.88
2022-12-05T07:28:33.086Z,100065.53
2022-12-05T07:29:04.497Z,100077.28
2022-12-05T07:29:35.931Z,100067.47
2022-12-05T07:30:07.333Z,100071.81
2022-12-05T07:30:38.700Z,100068.28
2022-12-05T07:31:10.073Z,100065.53
2022-12-05T07:31:41.511Z,100070.19
2022-12-05T07:32:13.011Z,100065.53
2022-12-05T07:32:44.423Z,100065.84
2022-12-05T07:33:15.769Z,100069.38
2022-12-05T07:33:47.203Z,100065.84
2022-12-05T07:34:18.572Z,100059.28
2022-12-05T07:34:54.930Z,100070.72
2022-12-05T07:35:26.956Z,100074.03
2022-12-05T07:35:58.325Z,100072.91
2022-12-05T07:36:29.671Z,100069.38
2022-12-05T07:37:00.994Z,100065.25
2022-12-05T07:37:32.426Z,100075.66
2022-12-05T07:38:03.827Z,100074.84
2022-12-05T07:38:35.278Z,100075.66
2022-12-05T07:39:06.654Z,100073.75
2022-12-05T07:39:38.089Z,100072.91
2022-12-05T07:40:09.527Z,100077.81
2022-12-05T07:40:40.904Z,100077.28
2022-12-05T07:41:13.718Z,100080.31
2022-12-05T07:41:45.149Z,100080.31
2022-12-05T07:42:16.557Z,100067.75
2022-12-05T07:42:47.947Z,100077.84
2022-12-05T07:43:19.342Z,100078.38
2022-12-05T07:43:50.780Z,100076.47
2022-12-05T07:44:22.150Z,100081.63
2022-12-05T07:44:53.565Z,100075.34
2022-12-05T07:45:25.011Z,100075.34
2022-12-05T07:45:56.424Z,100075.06
2022-12-05T07:46:27.942Z,100075.88
2022-12-05T07:46:59.325Z,100072.03
2022-12-05T07:47:30.785Z,100078.91
2022-12-05T07:48:02.262Z,100078.31
2022-12-05T07:48:33.621Z,100076.47
2022-12-05T07:49:04.990Z,100079.72
2022-12-05T07:49:36.375Z,100077.28
2022-12-05T07:50:07.823Z,100071.00
2022-12-05T07:50:39.270Z,100074.53
2022-12-05T07:51:10.683Z,100081.34
2022-12-05T07:51:42.141Z,100078.91
2022-12-05T07:52:13.515Z,100073.75
2022-12-05T07:52:44.919Z,100075.88
2022-12-05T07:53:16.308Z,100073.16
2022-12-05T07:53:47.682Z,100076.97
2022-12-05T07:54:19.048Z,100075.66
2022-12-05T07:54:50.421Z,100071.53
2022-12-05T07:55:21.797Z,100077.22
2022-12-05T07:55:53.251Z,100077.50
2022-12-05T07:56:24.635Z,100080.53
2022-12-05T07:56:56.195Z,100079.44
2022-12-05T07:57:27.615Z,100080.53
2022-12-05T07:57:58.976Z,100078.91
2022-12-05T07:58:30.396Z,100081.34
2022-12-05T07:59:01.780Z,100078.31
2022-12-05T07:59:33.143Z,100076.69
2022-12-05T08:00:04.497Z,100080.81
2022-12-05T08:00:35.886Z,100077.28
2022-12-05T08:01:07.395Z,100079.47
2022-12-05T08:01:38.888Z,100083.84
2022-12-05T08:02:10.425Z,100084.38
2022-12-05T08:02:41.855Z,100080.81
2022-12-05T08:03:13.304Z,100082.16
2022-12-05T08:03:44.702Z,100078.91
2022-12-05T08:04:16.176Z,100083.25
2022-12-05T08:04:47.574Z,100080.81
2022-12-05T08:05:18.980Z,100080.53
2022-12-05T08:05:50.321Z,100085.19
2022-12-05T08:06:21.827Z,100080.53
2022-12-05T08:06:53.247Z,100081.13
2022-12-05T08:07:24.624Z,100081.13
2022-12-05T08:07:56.110Z,100086.28
2022-12-05T08:08:27.591Z,100078.63
2022-12-05T08:08:58.966Z,100078.91
2022-12-05T08:09:30.319Z,100088.72
2022-12-05T08:10:01.696Z,100081.88
2022-12-05T08:10:33.072Z,100094.69
2022-12-05T08:11:04.411Z,100079.44
2022-12-05T08:11:35.795Z,100083.56
2022-12-05T08:12:07.234Z,100084.38
2022-12-05T08:12:38.624Z,100086.00
2022-12-05T08:13:09.970Z,100086.81
2022-12-05T08:13:41.354Z,100090.56
2022-12-05T08:14:12.795Z,100090.88
2022-12-05T08:14:44.205Z,100090.88
2022-12-05T08:15:15.638Z,100091.38
2022-12-05T08:15:46.989Z,100090.34
2022-12-05T08:16:18.435Z,100094.69
2022-12-05T08:16:49.927Z,100093.59
2022-12-05T08:17:21.438Z,100088.19
2022-12-05T08:17:52.886Z,100090.06
2022-12-05T08:18:27.293Z,100092.56
2022-12-05T08:18:59.043Z,100095.56
2022-12-05T08:19:30.482Z,100099.94
2022-12-05T08:20:01.836Z,100100.75
2022-12-05T08:20:33.218Z,100096.91
2022-12-05T08:21:04.625Z,100095.88
2022-12-05T08:21:35.992Z,100102.94
2022-12-05T08:22:07.330Z,100096.69
2022-12-05T08:22:38.706Z,100102.44
2022-12-05T08:23:10.141Z,100104.06
2022-12-05T08:23:41.506Z,100102.38
2022-12-05T08:24:12.904Z,100106.72
2022-12-05T08:24:44.299Z,100100.75
2022-12-05T08:25:15.665Z,100106.22
2022-12-05T08:25:47.091Z,100100.44
2022-12-05T08:26:18.513Z,100101.56
2022-12-05T08:26:49.890Z,100099.66
2022-12-05T08:27:21.246Z,100104.56
2022-12-05T08:27:52.593Z,100107.03
2022-12-05T08:28:24.053Z,100106.72
2022-12-05T08:28:55.448Z,100102.66
2022-12-05T08:29:26.813Z,100099.13
2022-12-05T08:29:58.374Z,100105.38
2022-12-05T08:30:29.886Z,100105.38
2022-12-05T08:31:01.358Z,100110.03
2022-12-05T08:31:32.831Z,100108.66
2022-12-05T08:32:04.269Z,100112.47
2022-12-05T08:32:35.687Z,100108.13
2022-12-05T08:33:07.073Z,100113.59
2022-12-05T08:33:38.564Z,100109.22
2022-12-05T08:34:09.943Z,100112.78
2022-12-05T08:34:41.360Z,100114.09
2022-12-05T08:35:12.748Z,100120.97
2022-12-05T08:35:44.079Z,100115.44
2022-12-05T08:36:15.554Z,100119.56
2022-12-05T08:36:46.985Z,100121.19
2022-12-05T08:37:18.289Z,100119.00
2022-12-05T08:37:49.699Z,100113.28
2022-12-05T08:38:21.091Z,100117.66
2022-12-05T08:38:52.491Z,100115.22
2022-12-05T08:39:23.842Z,100119.84
2022-12-05T08:39:55.385Z,100119.84
2022-12-05T08:40:26.886Z,100117.94
2022-12-05T08:40:58.259Z,100116.03
2022-12-05T08:41:29.650Z,100121.19
2022-12-05T08:42:01.078Z,100116.53
2022-12-05T08:42:32.436Z,100132.34
2022-12-05T08:43:03.816Z,100119.78
2022-12-05T08:43:35.187Z,100124.16
2022-12-05T08:44:06.597Z,100119.28
2022-12-05T08:44:38.006Z,100117.94
2022-12-05T08:45:09.379Z,100122.81
2022-12-05T08:45:40.792Z,100120.91
2022-12-05T08:46:12.244Z,100128.00
2022-12-05T08:46:43.713Z,100119.00
2022-12-05T08:47:15.205Z,100125.84
2022-12-05T08:47:46.587Z,100121.19
2022-12-05T08:48:18.032Z,100124.22
2022-12-05T08:48:49.424Z,100117.13
2022-12-05T08:49:20.850Z,100119.56
2022-12-05T08:49:52.229Z,100122.00
2022-12-05T08:50:23.612Z,100127.22
2022-12-05T08:50:54.975Z,100125.31
2022-12-05T08:51:26.342Z,100129.69
2022-12-05T08:51:57.768Z,100130.78
2022-12-05T08:52:29.171Z,100122.28
2022-12-05T08:53:00.558Z,100131.34
2022-12-05T08:53:31.911Z,100131.06
2022-12-05T08:54:03.266Z,100131.88
2022-12-05T08:54:34.694Z,100131.06
2022-12-05T08:55:06.061Z,100128.03
2022-12-05T08:55:37.419Z,100134.63
2022-12-05T08:56:08.784Z,100131.06
2022-12-05T08:56:40.155Z,100131.88
2022-12-05T08:57:11.593Z,100129.69
2022-12-05T08:57:42.956Z,100131.31
2022-12-05T08:58:14.343Z,100134.25
2022-12-05T08:58:45.779Z,100132.94
2022-12-05T08:59:17.166Z,100135.66
2022-12-05T08:59:48.657Z,100137.06
2022-12-05T09:00:20.087Z,100139.78
2022-12-05T09:00:51.542Z,100133.50
2022-12-05T09:01:23.036Z,100138.97
2022-12-05T09:01:54.560Z,100132.94
2022-12-05T09:02:26.070Z,100139.19
2022-12-05T09:02:57.487Z,100138.09
2022-12-05T09:03:28.934Z,100137.56
2022-12-05T09:04:00.338Z,100136.75
2022-12-05T09:04:31.739Z,100135.94
2022-12-05T09:05:25.715Z,100135.13
2022-12-05T09:05:55.078Z,100137.34
2022-12-05T09:06:26.482Z,100134.03
2022-12-05T09:06:57.891Z,100129.69
2022-12-05T09:07:29.374Z,100137.88
2022-12-05T09:08:00.781Z,100137.56
2022-12-05T09:08:32.143Z,100133.50
2022-12-05T09:09:03.540Z,100133.78
2022-12-05T09:09:34.890Z,100138.16
2022-12-05T09:10:06.359Z,100133.56
2022-12-05T09:10:37.744Z,100129.44
2022-12-05T09:11:09.105Z,100138.97
2022-12-05T09:11:40.520Z,100137.88
2022-12-05T09:12:11.877Z,100130.78
2022-12-05T09:12:43.297Z,100134.31
2022-12-05T09:13:14.694Z,100130.78
2022-12-05T09:13:46.130Z,100133.50
2022-12-05T09:14:17.481Z,100132.41
2022-12-05T09:14:48.858Z,100131.81
2022-12-05T09:15:20.261Z,100135.94
2022-12-05T09:15:51.683Z,100136.75
2022-12-05T09:16:23.144Z,100135.13
2022-12-05T09:16:54.537Z,100139.78
2022-12-05T09:17:25.987Z,100135.41
2022-12-05T09:17:57.359Z,100136.25
2022-12-05T09:18:28.820Z,100137.06
2022-12-05T09:19:00.334Z,100146.88
2022-12-05T09:19:31.765Z,100137.28
2022-12-05T09:20:03.135Z,100141.66
2022-12-05T09:20:34.657Z,100137.00
2022-12-05T09:21:06.065Z,100134.56
2022-12-05T09:21:37.414Z,100141.41
2022-12-05T09:22:08.801Z,100138.09
2022-12-05T09:22:40.199Z,100137.81
2022-12-05T09:23:15.849Z,100141.34
2022-12-05T09:23:47.651Z,100140.81
2022-12-05T09:24:19.050Z,100143.84
2022-12-05T09:24:50.443Z,100141.34
2022-12-05T09:25:21.816Z,100143.03
2022-12-05T09:25:53.206Z,100142.22
2022-12-05T09:26:24.565Z,100143.03
2022-12-05T09:26:55.960Z,100144.09
2022-12-05T09:27:27.301Z,100147.09
2022-12-05T09:27:58.704Z,100142.75
2022-12-05T09:28:30.139Z,100144.38
2022-12-05T09:29:01.514Z,100138.16
2022-12-05T09:29:32.878Z,100143.31
2022-12-05T09:30:04.358Z,100145.47
2022-12-05T09:30:35.705Z,100146.28
2022-12-05T09:31:07.110Z,100141.13
2022-12-05T09:31:38.683Z,100148.50
2022-12-05T09:32:10.082Z,100150.13
2022-12-05T09:32:41.528Z,100140.31
2022-12-05T09:33:12.879Z,100148.50
2022-12-05T09:33:44.299Z,100144.13
2022-12-05T09:34:15.725Z,100149.31
2022-12-05T09:34:47.105Z,100149.88
2022-12-05T09:35:18.466Z,100150.13
2022-12-05T09:35:49.838Z,100140.59
2022-12-05T09:36:21.225Z,100151.50
2022-12-05T09:37:05.445Z,100151.00
2022-12-05T09:37:41.901Z,100148.50
2022-12-05T09:38:13.289Z,100149.31
2022-12-05T09:38:44.690Z,100146.06
2022-12-05T09:39:16.135Z,100149.59
2022-12-05T09:39:47.511Z,100150.94
2022-12-05T09:40:18.897Z,100149.31
2022-12-05T09:40:50.287Z,100146.34
2022-12-05T09:41:21.697Z,100150.69
2022-12-05T09:41:53.091Z,100137.06
2022-12-05T09:42:24.448Z,100145.25
2022-12-05T09:42:55.833Z,100142.22
2022-12-05T09:43:27.229Z,100138.38
2022-12-05T09:43:58.698Z,100142.75
2022-12-05T09:44:30.512Z,100145.75
2022-12-05T09:45:02.132Z,100143.84
2022-12-05T09:45:33.601Z,100144.94
2022-12-05T09:46:05.068Z,100149.59
2022-12-05T09:46:36.523Z,100148.78
2022-12-05T09:47:07.914Z,100149.31
2022-12-05T09:47:39.375Z,100141.41
2022-12-05T09:48:10.750Z,100147.69
2022-12-05T09:48:42.139Z,100145.53
2022-12-05T09:49:13.611Z,100144.44
2022-12-05T09:49:44.972Z,100138.97
2022-12-05T09:50:16.421Z,100146.06
2022-12-05T09:50:47.767Z,100148.78
2022-12-05T09:51:19.148Z,100145.75
2022-12-05T09:51:55.083Z,100151.47
2022-12-05T09:52:26.886Z,100154.78
2022-12-05T09:52:58.365Z,100147.69
2022-12-05T09:53:29.725Z,100152.34
2022-12-05T09:54:01.096Z,100146.00
2022-12-05T09:54:32.483Z,100150.13
2022-12-05T09:55:03.905Z,100148.22
2022-12-05T09:55:35.304Z,100153.44
2022-12-05T09:56:06.695Z,100151.22
2022-12-05T09:56:38.116Z,100150.66
2022-12-05T09:57:09.467Z,100155.28
2022-12-05T09:57:40.881Z,100149.03
2022-12-05T09:58:12.302Z,100148.22
2022-12-05T09:58:43.665Z,100148.22
2022-12-05T09:59:15.060Z,100144.66
2022-12-05T09:59:46.426Z,100147.91
2022-12-05T10:00:17.789Z,100141.34
2022-12-05T10:00:49.245Z,100147.41
2022-12-05T10:01:20.649Z,100146.56
2022-12-05T10:01:52.181Z,100147.41
2022-12-05T10:02:23.606Z,100142.75
2022-12-05T10:02:54.980Z,100138.38
2022-12-05T10:03:26.436Z,100141.94
2022-12-05T10:03:57.801Z,100140.00
2022-12-05T10:04:29.206Z,100143.84
2022-12-05T10:05:01.262Z,100137.06
2022-12-05T10:05:32.776Z,100139.78
2022-12-05T10:06:04.146Z,100146.06
2022-12-05T10:06:35.517Z,100143.28
2022-12-05T10:07:06.889Z,100145.75
2022-12-05T10:07:38.303Z,100143.28
2022-12-05T10:08:09.742Z,100134.31
2022-12-05T10:08:41.148Z,100135.94
2022-12-05T10:09:12.555Z,100141.66
2022-12-05T10:09:43.910Z,100137.56
2022-12-05T10:10:20.017Z,100141.13
2022-12-05T10:10:51.966Z,100143.84
2022-12-05T10:11:23.334Z,100137.56
2022-12-05T10:11:54.722Z,100138.38
2022-12-05T10:12:26.094Z,100141.41
2022-12-05T10:12:57.583Z,100141.13
2022-12-05T10:13:28.939Z,100140.00
2022-12-05T10:14:00.352Z,100137.88
2022-12-05T10:14:31.778Z,100140.00
2022-12-05T10:15:03.166Z,100146.81
2022-12-05T10:15:34.681Z,100140.00
2022-12-05T10:16:06.105Z,100146.06
2022-12-05T10:16:37.534Z,100139.50
2022-12-05T10:17:08.937Z,100149.06
2022-12-05T10:17:40.326Z,100143.31
2022-12-05T10:18:11.700Z,100137.06
2022-12-05T10:18:43.120Z,100136.25
2022-12-05T10:19:14.721Z,100141.69
2022-12-05T10:19:46.080Z,100140.06
2022-12-05T10:20:17.514Z,100143.31
2022-12-05T10:20:48.928Z,100142.22
2022-12-05T10:21:20.384Z,100134.84
2022-12-05T10:21:51.755Z,100132.13
2022-12-05T10:22:23.180Z,100134.56
2022-12-05T10:22:54.572Z,100135.94
2022-12-05T10:23:55.452Z,100136.25
2022-12-05T10:24:17.455Z,100141.94
2022-12-05T10:24:48.819Z,100135.66
2022-12-05T10:25:20.203Z,100136.75
2022-12-05T10:25:51.575Z,100137.56
2022-12-05T10:26:22.962Z,100141.13
2022-12-05T10:26:54.314Z,100134.84
2022-12-05T10:27:25.704Z,100138.09
2022-12-05T10:27:57.048Z,100136.19
2022-12-05T10:28:28.434Z,100136.19
2022-12-05T10:28:59.826Z,100141.66
2022-12-05T10:29:31.256Z,100141.94
2022-12-05T10:30:02.689Z,100136.75
2022-12-05T10:30:34.072Z,100134.84
2022-12-05T10:31:05.488Z,100135.66
2022-12-05T10:31:36.985Z,100137.56
2022-12-05T10:32:08.415Z,100143.31
2022-12-05T10:32:39.830Z,100140.59
2022-12-05T10:33:11.225Z,100136.53
2022-12-05T10:33:42.642Z,100137.34
2022-12-05T10:34:13.997Z,100134.91
2022-12-05T10:34:45.453Z,100135.41
2022-12-05T10:35:16.860Z,100146.06
2022-12-05T10:35:48.218Z,100135.94
2022-12-05T10:36:19.574Z,100140.59
2022-12-05T10:36:51.018Z,100139.53
2022-12-05T10:37:22.361Z,100140.88
2022-12-05T10:37:53.721Z,100145.25
2022-12-05T10:38:25.064Z,100141.41
2022-12-05T10:38:56.418Z,100144.13
2022-12-05T10:39:27.773Z,100140.00
2022-12-05T10:39:59.202Z,100138.91
2022-12-05T10:40:30.641Z,100147.09
2022-12-05T10:41:02.037Z,100142.97
2022-12-05T10:41:33.474Z,100133.75
2022-12-05T10:42:04.794Z,100144.13
2022-12-05T10:42:36.191Z,100139.78
2022-12-05T10:43:07.576Z,100141.41
2022-12-05T10:43:38.901Z,100141.66
2022-12-05T10:44:10.262Z,100142.22
2022-12-05T10:44:41.615Z,100139.50
2022-12-05T10:45:13.045Z,100143.84
2022-12-05T10:45:44.405Z,100143.31
2022-12-05T10:46:17.407Z,100140.31
2022-12-05T10:46:49.018Z,100139.50
2022-12-05T10:47:20.469Z,100139.19
2022-12-05T10:47:51.823Z,100142.22
2022-12-05T10:48:23.244Z,100142.50
2022-12-05T10:48:54.666Z,100141.41
2022-12-05T10:49:26.023Z,100137.28
2022-12-05T10:49:57.370Z,100132.34
2022-12-05T10:50:28.917Z,100143.78
2022-12-05T10:51:00.316Z,100144.38
2022-12-05T10:51:37.355Z,100140.53
2022-12-05T10:52:09.220Z,100141.66
2022-12-05T10:52:40.599Z,100147.69
2022-12-05T10:53:12.025Z,100135.94
2022-12-05T10:53:43.403Z,100144.94
2022-12-05T10:54:14.849Z,100141.66
2022-12-05T10:54:46.235Z,100143.50
2022-12-05T10:55:17.634Z,100130.13
2022-12-05T10:56:06.857Z,100144.59
2022-12-05T10:56:40.476Z,100138.09
2022-12-05T10:57:11.850Z,100142.44
2022-12-05T10:57:43.283Z,100142.44
2022-12-05T10:58:17.594Z,100141.34
2022-12-05T10:58:49.392Z,100142.75
2022-12-05T10:59:20.985Z,100138.38
2022-12-05T10:59:52.921Z,100143.03
2022-12-05T11:00:25.150Z,100140.00
2022-12-05T11:00:57.577Z,100138.69
2022-12-05T11:01:29.870Z,100138.38
2022-12-05T11:02:01.856Z,100135.66
2022-12-05T11:02:33.775Z,100130.72
2022-12-05T11:03:05.102Z,100134.03
2022-12-05T11:03:36.515Z,100139.50
2022-12-05T11:04:13.378Z,100135.66
2022-12-05T11:04:45.255Z,100131.59
2022-12-05T11:05:16.745Z,100135.94
2022-12-05T11:05:48.191Z,100131.88
2022-12-05T11:06:19.633Z,100137.56
2022-12-05T11:06:51.009Z,100133.75
2022-12-05T11:07:22.392Z,100131.81
2022-12-05T11:07:53.833Z,100134.84
2022-12-05T11:08:48.291Z,100131.81
2022-12-05T11:09:16.694Z,100138.34
2022-12-05T11:09:48.063Z,100125.31
2022-12-05T11:10:23.644Z,100136.47
2022-12-05T11:10:57.926Z,100138.69
2022-12-05T11:11:29.360Z,100134.31
2022-12-05T11:12:00.701Z,100134.31
2022-12-05T11:12:32.106Z,100127.47
2022-12-05T11:13:03.558Z,100129.09
2022-12-05T11:13:35.066Z,100131.00
2022-12-05T11:14:06.501Z,100126.06
2022-12-05T11:14:37.901Z,100128.28
2022-12-05T11:15:09.245Z,100130.19
2022-12-05T11:15:40.646Z,100135.13
2022-12-05T11:16:12.097Z,100135.13
2022-12-05T11:16:43.595Z,100128.56
2022-12-05T11:17:15.046Z,100128.84
2022-12-05T11:17:46.425Z,100129.97
2022-12-05T11:18:17.767Z,100131.31
2022-12-05T11:18:49.155Z,100121.47
2022-12-05T11:19:20.560Z,100128.81
2022-12-05T11:19:51.978Z,100128.28
2022-12-05T11:20:23.444Z,100129.69
2022-12-05T11:20:54.786Z,100130.50
2022-12-05T11:21:26.157Z,100130.78
2022-12-05T11:21:57.506Z,100125.84
2022-12-05T11:22:28.912Z,100126.66
2022-12-05T11:23:00.271Z,100127.75
2022-12-05T11:23:31.676Z,100126.88
2022-12-05T11:24:03.061Z,100126.88
2022-12-05T11:24:34.424Z,100124.72
2022-12-05T11:25:05.913Z,100122.00
2022-12-05T11:25:37.311Z,100122.53
2022-12-05T11:26:08.757Z,100132.34
2022-12-05T11:26:40.152Z,100123.88
2022-12-05T11:27:11.529Z,100123.63
2022-12-05T11:27:42.922Z,100129.09
2022-12-05T11:28:14.348Z,100124.69
2022-12-05T11:28:45.752Z,100125.25
2022-12-05T11:29:17.095Z,100124.22
2022-12-05T11:29:48.456Z,100122.59
2022-12-05T11:30:19.872Z,100118.16
2022-12-05T11:30:51.304Z,100117.06
2022-12-05T11:31:22.976Z,100120.09
2022-12-05T11:31:54.403Z,100125.25
2022-12-05T11:32:25.792Z,100111.91
2022-12-05T11:32:57.160Z,100123.09
2022-12-05T11:33:28.539Z,100117.66
2022-12-05T11:34:02.145Z,100120.09
2022-12-05T11:34:33.794Z,100123.88
2022-12-05T11:35:05.266Z,100124.97
2022-12-05T11:35:36.666Z,100120.91
2022-12-05T11:36:08.053Z,100124.16
2022-12-05T11:36:39.452Z,100119.50
2022-12-05T11:37:10.840Z,100123.06
2022-12-05T11:37:42.191Z,100113.22
2022-12-05T11:38:13.555Z,100122.25
2022-12-05T11:38:44.925Z,100120.63
2022-12-05T11:39:16.273Z,100120.31
2022-12-05T11:39:47.656Z,100119.22
2022-12-05T11:40:21.630Z,100126.88
2022-12-05T11:40:56.644Z,100126.88
2022-12-05T11:41:28.085Z,100118.16